CheckWX is a tool to help pilots better visualize weather data.  It is not intended as a substitute for an official pre-flight weather briefing.

06:58:02 UTC

KILG TAF
New Castle Airport
Wilmington, Delaware, USA
KILG 210538Z 2106/2206 25004KT P6SM SCT250 FM211600 20006KT P6SM SCT250 FM220300 VRB03KT P6SM SCT250

Sep-21@
06:00 UTC

Sep-21 @ 06:00 UTC

Sep-21@
16:00 UTC

Sep-21 @ 16:00 UTC

KILG 210538Z 2106/2206 25004KT P6SM SCT250
Wind
  • 250° at 4 KTS
Cloud Levels
  • Scattered at 25,000' AGL

Sep-21@
16:00 UTC

Sep-21 @ 16:00 UTC

Sep-22@
03:00 UTC

Sep-22 @ 03:00 UTC

FM211600 20006KT P6SM SCT250

From

From Standard forecast or significant change

Wind
  • 200° at 6 KTS
Cloud Levels
  • Scattered at 25,000' AGL

Sep-22@
03:00 UTC

Sep-22 @ 03:00 UTC

Sep-22@
06:00 UTC

Sep-22 @ 06:00 UTC

FM220300 VRB03KT P6SM SCT250

From

From Standard forecast or significant change

Wind
  • Variable at 3 KTS
Cloud Levels
  • Scattered at 25,000' AGL